sensor_id;sensor_type;location;lat;lon;timestamp;temperature;humidity
44723;DHT22;30451;48.638;10.624;2022-07-23T00:01:34;29.70;47.20
44723;DHT22;30451;48.638;10.624;2022-07-23T00:03:59;29.60;47.30
44723;DHT22;30451;48.638;10.624;2022-07-23T00:06:25;29.60;47.20
44723;DHT22;30451;48.638;10.624;2022-07-23T00:08:50;29.60;47.20
44723;DHT22;30451;48.638;10.624;2022-07-23T00:11:16;29.60;47.30
44723;DHT22;30451;48.638;10.624;2022-07-23T00:13:42;29.60;47.30
44723;DHT22;30451;48.638;10.624;2022-07-23T00:16:08;29.60;47.30
44723;DHT22;30451;48.638;10.624;2022-07-23T00:18:33;29.60;47.30
44723;DHT22;30451;48.638;10.624;2022-07-23T00:20:59;29.60;47.40
44723;DHT22;30451;48.638;10.624;2022-07-23T00:23:24;29.60;47.60
44723;DHT22;30451;48.638;10.624;2022-07-23T00:25:51;29.60;47.40
44723;DHT22;30451;48.638;10.624;2022-07-23T00:28:17;29.60;47.40
44723;DHT22;30451;48.638;10.624;2022-07-23T00:30:43;29.60;47.40
44723;DHT22;30451;48.638;10.624;2022-07-23T00:33:12;29.60;47.50
44723;DHT22;30451;48.638;10.624;2022-07-23T00:35:38;29.60;47.50
44723;DHT22;30451;48.638;10.624;2022-07-23T00:38:06;29.60;47.50
44723;DHT22;30451;48.638;10.624;2022-07-23T00:40:33;29.60;47.50
44723;DHT22;30451;48.638;10.624;2022-07-23T00:42:58;29.60;47.50
44723;DHT22;30451;48.638;10.624;2022-07-23T00:45:24;29.60;47.50
44723;DHT22;30451;48.638;10.624;2022-07-23T00:47:50;29.60;47.50
44723;DHT22;30451;48.638;10.624;2022-07-23T00:50:16;29.60;47.50
44723;DHT22;30451;48.638;10.624;2022-07-23T00:52:41;29.60;47.50
44723;DHT22;30451;48.638;10.624;2022-07-23T00:55:08;29.60;47.60
44723;DHT22;30451;48.638;10.624;2022-07-23T00:57:34;29.60;47.60
44723;DHT22;30451;48.638;10.624;2022-07-23T01:00:00;29.60;47.60
44723;DHT22;30451;48.638;10.624;2022-07-23T01:02:26;29.60;47.60
44723;DHT22;30451;48.638;10.624;2022-07-23T01:04:51;29.50;47.50
44723;DHT22;30451;48.638;10.624;2022-07-23T01:07:17;29.50;47.50
44723;DHT22;30451;48.638;10.624;2022-07-23T01:09:44;29.60;47.60
44723;DHT22;30451;48.638;10.624;2022-07-23T01:12:10;29.50;47.50
44723;DHT22;30451;48.638;10.624;2022-07-23T01:14:35;29.50;47.60
44723;DHT22;30451;48.638;10.624;2022-07-23T01:17:01;29.50;47.50
44723;DHT22;30451;48.638;10.624;2022-07-23T01:19:27;29.50;47.60
44723;DHT22;30451;48.638;10.624;2022-07-23T01:21:53;29.50;47.60
44723;DHT22;30451;48.638;10.624;2022-07-23T01:24:18;29.50;47.70
44723;DHT22;30451;48.638;10.624;2022-07-23T01:26:47;29.50;47.70
44723;DHT22;30451;48.638;10.624;2022-07-23T01:29:13;29.50;47.70
44723;DHT22;30451;48.638;10.624;2022-07-23T01:31:39;29.50;47.70
44723;DHT22;30451;48.638;10.624;2022-07-23T01:34:05;29.50;47.70
44723;DHT22;30451;48.638;10.624;2022-07-23T01:36:32;29.50;47.70
44723;DHT22;30451;48.638;10.624;2022-07-23T01:38:58;29.50;47.80
44723;DHT22;30451;48.638;10.624;2022-07-23T01:41:25;29.50;47.80
44723;DHT22;30451;48.638;10.624;2022-07-23T01:43:50;29.50;47.90
44723;DHT22;30451;48.638;10.624;2022-07-23T01:46:16;29.50;47.90
44723;DHT22;30451;48.638;10.624;2022-07-23T01:48:41;29.50;48.10
44723;DHT22;30451;48.638;10.624;2022-07-23T01:51:07;29.50;47.90
44723;DHT22;30451;48.638;10.624;2022-07-23T01:53:33;29.50;48.00
44723;DHT22;30451;48.638;10.624;2022-07-23T01:55:59;29.50;48.00
44723;DHT22;30451;48.638;10.624;2022-07-23T01:58:25;29.50;48.00
44723;DHT22;30451;48.638;10.624;2022-07-23T02:00:50;29.50;48.00
44723;DHT22;30451;48.638;10.624;2022-07-23T02:03:16;29.50;48.10
44723;DHT22;30451;48.638;10.624;2022-07-23T02:05:42;29.50;48.10
44723;DHT22;30451;48.638;10.624;2022-07-23T02:08:07;29.50;48.10
44723;DHT22;30451;48.638;10.624;2022-07-23T02:10:33;29.50;48.20
44723;DHT22;30451;48.638;10.624;2022-07-23T02:12:59;29.50;48.10
44723;DHT22;30451;48.638;10.624;2022-07-23T02:15:24;29.50;48.10
44723;DHT22;30451;48.638;10.624;2022-07-23T02:17:50;29.50;48.20
44723;DHT22;30451;48.638;10.624;2022-07-23T02:20:15;29.50;48.20
44723;DHT22;30451;48.638;10.624;2022-07-23T02:22:41;29.50;48.20
44723;DHT22;30451;48.638;10.624;2022-07-23T02:25:07;29.50;48.20
44723;DHT22;30451;48.638;10.624;2022-07-23T02:27:33;29.50;48.20
44723;DHT22;30451;48.638;10.624;2022-07-23T02:29:59;29.50;48.30
44723;DHT22;30451;48.638;10.624;2022-07-23T02:32:24;29.50;48.30
44723;DHT22;30451;48.638;10.624;2022-07-23T02:34:50;29.50;48.20
44723;DHT22;30451;48.638;10.624;2022-07-23T02:37:16;29.50;48.30
44723;DHT22;30451;48.638;10.624;2022-07-23T02:39:42;29.50;48.20
44723;DHT22;30451;48.638;10.624;2022-07-23T02:42:07;29.50;48.30
44723;DHT22;30451;48.638;10.624;2022-07-23T02:44:33;29.50;48.30
44723;DHT22;30451;48.638;10.624;2022-07-23T02:46:59;29.50;48.30
44723;DHT22;30451;48.638;10.624;2022-07-23T02:49:25;29.50;48.30
44723;DHT22;30451;48.638;10.624;2022-07-23T02:51:50;29.50;48.30
44723;DHT22;30451;48.638;10.624;2022-07-23T02:54:16;29.50;48.30
44723;DHT22;30451;48.638;10.624;2022-07-23T02:56:42;29.50;48.30
44723;DHT22;30451;48.638;10.624;2022-07-23T02:59:08;29.50;48.20
44723;DHT22;30451;48.638;10.624;2022-07-23T03:01:33;29.50;48.30
44723;DHT22;30451;48.638;10.624;2022-07-23T03:03:59;29.50;48.20
44723;DHT22;30451;48.638;10.624;2022-07-23T03:06:24;29.50;48.30
44723;DHT22;30451;48.638;10.624;2022-07-23T03:08:50;29.40;48.20
44723;DHT22;30451;48.638;10.624;2022-07-23T03:11:16;29.40;48.20
44723;DHT22;30451;48.638;10.624;2022-07-23T03:13:41;29.40;48.20
44723;DHT22;30451;48.638;10.624;2022-07-23T03:16:07;29.40;48.20
44723;DHT22;30451;48.638;10.624;2022-07-23T03:18:33;29.40;48.20
44723;DHT22;30451;48.638;10.624;2022-07-23T03:20:59;29.40;48.20
44723;DHT22;30451;48.638;10.624;2022-07-23T03:23:24;29.40;48.20
44723;DHT22;30451;48.638;10.624;2022-07-23T03:25:50;29.40;48.20
44723;DHT22;30451;48.638;10.624;2022-07-23T03:28:16;29.40;48.20
44723;DHT22;30451;48.638;10.624;2022-07-23T03:30:44;29.40;48.20
44723;DHT22;30451;48.638;10.624;2022-07-23T03:33:14;29.40;48.20
44723;DHT22;30451;48.638;10.624;2022-07-23T03:35:39;29.40;48.10
44723;DHT22;30451;48.638;10.624;2022-07-23T03:38:05;29.40;48.20
44723;DHT22;30451;48.638;10.624;2022-07-23T03:40:30;29.40;48.20
44723;DHT22;30451;48.638;10.624;2022-07-23T03:42:56;29.40;48.10
44723;DHT22;30451;48.638;10.624;2022-07-23T03:45:21;29.40;48.10
44723;DHT22;30451;48.638;10.624;2022-07-23T03:47:47;29.40;48.10
44723;DHT22;30451;48.638;10.624;2022-07-23T03:50:12;29.40;48.10
44723;DHT22;30451;48.638;10.624;2022-07-23T03:52:38;29.40;48.10
44723;DHT22;30451;48.638;10.624;2022-07-23T03:55:04;29.40;48.20
44723;DHT22;30451;48.638;10.624;2022-07-23T03:57:29;29.30;48.10
44723;DHT22;30451;48.638;10.624;2022-07-23T03:59:55;29.30;48.10
44723;DHT22;30451;48.638;10.624;2022-07-23T04:02:20;29.30;48.10
44723;DHT22;30451;48.638;10.624;2022-07-23T04:04:46;29.30;48.10
44723;DHT22;30451;48.638;10.624;2022-07-23T04:07:12;29.30;48.10
44723;DHT22;30451;48.638;10.624;2022-07-23T04:09:37;29.30;48.10
44723;DHT22;30451;48.638;10.624;2022-07-23T04:12:06;29.30;48.10
44723;DHT22;30451;48.638;10.624;2022-07-23T04:14:31;29.30;48.20
44723;DHT22;30451;48.638;10.624;2022-07-23T04:16:57;29.00;48.90
44723;DHT22;30451;48.638;10.624;2022-07-23T04:19:22;28.60;49.50
44723;DHT22;30451;48.638;10.624;2022-07-23T04:21:48;28.30;50.30
44723;DHT22;30451;48.638;10.624;2022-07-23T04:24:13;28.00;51.10
44723;DHT22;30451;48.638;10.624;2022-07-23T04:26:39;27.90;51.40
44723;DHT22;30451;48.638;10.624;2022-07-23T04:29:04;27.90;51.30
44723;DHT22;30451;48.638;10.624;2022-07-23T04:31:29;28.00;50.90
44723;DHT22;30451;48.638;10.624;2022-07-23T04:33:55;28.10;50.80
44723;DHT22;30451;48.638;10.624;2022-07-23T04:36:20;28.10;50.60
44723;DHT22;30451;48.638;10.624;2022-07-23T04:38:46;28.20;50.30
44723;DHT22;30451;48.638;10.624;2022-07-23T04:41:11;28.20;50.30
44723;DHT22;30451;48.638;10.624;2022-07-23T04:43:37;28.20;50.20
44723;DHT22;30451;48.638;10.624;2022-07-23T04:46:02;28.10;50.80
44723;DHT22;30451;48.638;10.624;2022-07-23T04:48:28;28.00;50.70
44723;DHT22;30451;48.638;10.624;2022-07-23T04:50:53;28.10;50.70
44723;DHT22;30451;48.638;10.624;2022-07-23T04:53:19;28.10;50.60
44723;DHT22;30451;48.638;10.624;2022-07-23T04:55:45;28.10;50.50
44723;DHT22;30451;48.638;10.624;2022-07-23T04:58:10;28.10;50.50
44723;DHT22;30451;48.638;10.624;2022-07-23T05:00:36;28.10;50.50
44723;DHT22;30451;48.638;10.624;2022-07-23T05:03:01;28.10;50.40
44723;DHT22;30451;48.638;10.624;2022-07-23T05:05:27;28.10;50.30
44723;DHT22;30451;48.638;10.624;2022-07-23T05:07:52;28.10;50.20
44723;DHT22;30451;48.638;10.624;2022-07-23T05:10:18;28.10;50.20
44723;DHT22;30451;48.638;10.624;2022-07-23T05:12:43;28.10;50.20
44723;DHT22;30451;48.638;10.624;2022-07-23T05:15:09;28.10;50.20
44723;DHT22;30451;48.638;10.624;2022-07-23T05:17:34;28.10;50.10
44723;DHT22;30451;48.638;10.624;2022-07-23T05:20:00;28.20;50.20
44723;DHT22;30451;48.638;10.624;2022-07-23T05:22:25;28.20;50.20
44723;DHT22;30451;48.638;10.624;2022-07-23T05:24:51;28.20;50.20
44723;DHT22;30451;48.638;10.624;2022-07-23T05:27:16;28.10;50.20
44723;DHT22;30451;48.638;10.624;2022-07-23T05:29:42;28.20;50.20
44723;DHT22;30451;48.638;10.624;2022-07-23T05:32:07;28.10;50.20
44723;DHT22;30451;48.638;10.624;2022-07-23T05:34:33;28.10;50.20
44723;DHT22;30451;48.638;10.624;2022-07-23T05:36:58;28.10;50.20
44723;DHT22;30451;48.638;10.624;2022-07-23T05:39:24;28.10;50.30
44723;DHT22;30451;48.638;10.624;2022-07-23T05:41:49;28.10;50.80
44723;DHT22;30451;48.638;10.624;2022-07-23T05:44:15;28.00;51.50
44723;DHT22;30451;48.638;10.624;2022-07-23T05:46:40;28.00;52.10
44723;DHT22;30451;48.638;10.624;2022-07-23T05:49:06;27.80;52.20
44723;DHT22;30451;48.638;10.624;2022-07-23T05:51:31;27.80;52.20
44723;DHT22;30451;48.638;10.624;2022-07-23T05:53:57;27.80;52.20
44723;DHT22;30451;48.638;10.624;2022-07-23T05:56:22;27.80;52.40
44723;DHT22;30451;48.638;10.624;2022-07-23T05:58:48;27.60;52.70
44723;DHT22;30451;48.638;10.624;2022-07-23T06:01:13;27.60;52.70
44723;DHT22;30451;48.638;10.624;2022-07-23T06:03:38;27.60;52.80
44723;DHT22;30451;48.638;10.624;2022-07-23T06:06:04;27.50;52.90
44723;DHT22;30451;48.638;10.624;2022-07-23T06:08:30;27.40;53.10
44723;DHT22;30451;48.638;10.624;2022-07-23T06:10:55;27.50;53.00
44723;DHT22;30451;48.638;10.624;2022-07-23T06:13:21;27.40;53.10
44723;DHT22;30451;48.638;10.624;2022-07-23T06:15:46;27.40;52.90
44723;DHT22;30451;48.638;10.624;2022-07-23T06:18:12;27.40;53.10
44723;DHT22;30451;48.638;10.624;2022-07-23T06:20:37;27.30;53.30
44723;DHT22;30451;48.638;10.624;2022-07-23T06:23:03;27.20;54.00
44723;DHT22;30451;48.638;10.624;2022-07-23T06:25:29;27.00;54.40
44723;DHT22;30451;48.638;10.624;2022-07-23T06:27:54;27.00;55.00
44723;DHT22;30451;48.638;10.624;2022-07-23T06:30:20;26.80;55.00
44723;DHT22;30451;48.638;10.624;2022-07-23T06:32:54;26.80;55.00
44723;DHT22;30451;48.638;10.624;2022-07-23T06:35:20;26.80;55.10
44723;DHT22;30451;48.638;10.624;2022-07-23T06:37:46;26.70;55.00
44723;DHT22;30451;48.638;10.624;2022-07-23T06:40:11;26.70;55.30
44723;DHT22;30451;48.638;10.624;2022-07-23T06:42:38;26.70;55.30
44723;DHT22;30451;48.638;10.624;2022-07-23T06:45:05;26.70;55.40
44723;DHT22;30451;48.638;10.624;2022-07-23T06:47:30;26.60;55.60
44723;DHT22;30451;48.638;10.624;2022-07-23T06:49:56;26.60;55.50
44723;DHT22;30451;48.638;10.624;2022-07-23T06:52:21;26.60;55.10
44723;DHT22;30451;48.638;10.624;2022-07-23T06:54:47;26.70;54.80
44723;DHT22;30451;48.638;10.624;2022-07-23T06:57:13;26.70;54.50
44723;DHT22;30451;48.638;10.624;2022-07-23T06:59:38;26.70;54.10
44723;DHT22;30451;48.638;10.624;2022-07-23T07:02:06;26.80;53.90
44723;DHT22;30451;48.638;10.624;2022-07-23T07:04:31;26.80;53.60
44723;DHT22;30451;48.638;10.624;2022-07-23T07:06:57;26.90;53.40
44723;DHT22;30451;48.638;10.624;2022-07-23T07:09:23;26.90;53.20
44723;DHT22;30451;48.638;10.624;2022-07-23T07:11:48;26.90;53.10
44723;DHT22;30451;48.638;10.624;2022-07-23T07:14:14;27.00;53.00
44723;DHT22;30451;48.638;10.624;2022-07-23T07:16:39;27.00;52.80
44723;DHT22;30451;48.638;10.624;2022-07-23T07:19:05;27.00;52.70
44723;DHT22;30451;48.638;10.624;2022-07-23T07:21:30;27.00;52.60
44723;DHT22;30451;48.638;10.624;2022-07-23T07:23:56;27.10;52.50
44723;DHT22;30451;48.638;10.624;2022-07-23T07:26:21;27.10;52.50
44723;DHT22;30451;48.638;10.624;2022-07-23T07:28:47;27.10;52.50
44723;DHT22;30451;48.638;10.624;2022-07-23T07:31:13;27.10;52.40
44723;DHT22;30451;48.638;10.624;2022-07-23T07:33:38;27.10;52.40
44723;DHT22;30451;48.638;10.624;2022-07-23T07:36:04;27.10;52.40
44723;DHT22;30451;48.638;10.624;2022-07-23T07:38:29;27.10;52.30
44723;DHT22;30451;48.638;10.624;2022-07-23T07:40:55;27.20;52.30
44723;DHT22;30451;48.638;10.624;2022-07-23T07:43:20;27.20;52.20
44723;DHT22;30451;48.638;10.624;2022-07-23T07:45:46;27.20;52.10
44723;DHT22;30451;48.638;10.624;2022-07-23T07:48:11;27.20;52.10
44723;DHT22;30451;48.638;10.624;2022-07-23T07:50:37;27.20;52.00
44723;DHT22;30451;48.638;10.624;2022-07-23T07:53:03;27.20;51.90
44723;DHT22;30451;48.638;10.624;2022-07-23T07:55:28;27.20;51.90
44723;DHT22;30451;48.638;10.624;2022-07-23T07:57:54;27.20;51.80
44723;DHT22;30451;48.638;10.624;2022-07-23T08:00:20;27.20;51.80
44723;DHT22;30451;48.638;10.624;2022-07-23T08:02:49;27.30;51.90
44723;DHT22;30451;48.638;10.624;2022-07-23T08:05:18;27.20;51.80
44723;DHT22;30451;48.638;10.624;2022-07-23T08:07:44;27.30;51.70
44723;DHT22;30451;48.638;10.624;2022-07-23T08:10:09;27.20;51.60
44723;DHT22;30451;48.638;10.624;2022-07-23T08:12:54;27.20;51.60
44723;DHT22;30451;48.638;10.624;2022-07-23T08:15:21;27.30;51.60
44723;DHT22;30451;48.638;10.624;2022-07-23T08:17:47;27.30;52.20
44723;DHT22;30451;48.638;10.624;2022-07-23T08:20:13;27.30;51.60
44723;DHT22;30451;48.638;10.624;2022-07-23T08:22:46;27.30;51.50
44723;DHT22;30451;48.638;10.624;2022-07-23T08:25:12;27.30;51.50
44723;DHT22;30451;48.638;10.624;2022-07-23T08:27:37;27.30;51.50
44723;DHT22;30451;48.638;10.624;2022-07-23T08:30:03;27.30;51.40
44723;DHT22;30451;48.638;10.624;2022-07-23T08:32:29;27.40;51.50
44723;DHT22;30451;48.638;10.624;2022-07-23T08:34:54;27.30;51.90
44723;DHT22;30451;48.638;10.624;2022-07-23T08:37:20;27.40;51.40
44723;DHT22;30451;48.638;10.624;2022-07-23T08:39:46;27.40;51.30
44723;DHT22;30451;48.638;10.624;2022-07-23T08:42:12;27.40;51.30
44723;DHT22;30451;48.638;10.624;2022-07-23T08:44:38;27.40;51.30
44723;DHT22;30451;48.638;10.624;2022-07-23T08:47:07;27.40;51.20
44723;DHT22;30451;48.638;10.624;2022-07-23T08:49:33;27.40;51.20
44723;DHT22;30451;48.638;10.624;2022-07-23T08:51:58;27.40;51.20
44723;DHT22;30451;48.638;10.624;2022-07-23T08:54:24;27.40;51.20
44723;DHT22;30451;48.638;10.624;2022-07-23T08:56:50;27.40;51.10
44723;DHT22;30451;48.638;10.624;2022-07-23T08:59:15;27.40;51.10
44723;DHT22;30451;48.638;10.624;2022-07-23T09:01:41;27.50;51.10
44723;DHT22;30451;48.638;10.624;2022-07-23T09:04:06;27.40;51.00
44723;DHT22;30451;48.638;10.624;2022-07-23T09:06:32;27.40;51.00
44723;DHT22;30451;48.638;10.624;2022-07-23T09:08:57;27.50;51.00
44723;DHT22;30451;48.638;10.624;2022-07-23T09:11:23;27.50;51.00
44723;DHT22;30451;48.638;10.624;2022-07-23T09:13:49;27.50;50.90
44723;DHT22;30451;48.638;10.624;2022-07-23T09:16:16;27.50;50.90
44723;DHT22;30451;48.638;10.624;2022-07-23T09:18:45;27.50;50.90
44723;DHT22;30451;48.638;10.624;2022-07-23T09:21:12;27.50;50.90
44723;DHT22;30451;48.638;10.624;2022-07-23T09:26:23;27.50;50.80
44723;DHT22;30451;48.638;10.624;2022-07-23T09:28:50;27.50;50.80
44723;DHT22;30451;48.638;10.624;2022-07-23T09:31:16;27.50;50.70
44723;DHT22;30451;48.638;10.624;2022-07-23T09:33:41;27.60;50.80
44723;DHT22;30451;48.638;10.624;2022-07-23T09:36:07;27.60;50.70
44723;DHT22;30451;48.638;10.624;2022-07-23T09:38:34;27.60;50.70
44723;DHT22;30451;48.638;10.624;2022-07-23T09:41:07;27.60;50.60
44723;DHT22;30451;48.638;10.624;2022-07-23T09:43:32;27.60;50.70
44723;DHT22;30451;48.638;10.624;2022-07-23T09:48:42;27.60;50.40
44723;DHT22;30451;48.638;10.624;2022-07-23T09:51:08;27.60;50.40
44723;DHT22;30451;48.638;10.624;2022-07-23T09:53:33;27.60;50.40
44723;DHT22;30451;48.638;10.624;2022-07-23T09:55:59;27.60;50.30
44723;DHT22;30451;48.638;10.624;2022-07-23T09:58:25;27.60;50.30
44723;DHT22;30451;48.638;10.624;2022-07-23T10:00:52;27.60;50.30
44723;DHT22;30451;48.638;10.624;2022-07-23T10:03:18;27.60;50.20
44723;DHT22;30451;48.638;10.624;2022-07-23T10:05:44;27.60;50.20
44723;DHT22;30451;48.638;10.624;2022-07-23T10:08:13;27.60;50.10
44723;DHT22;30451;48.638;10.624;2022-07-23T10:10:42;27.60;50.10
44723;DHT22;30451;48.638;10.624;2022-07-23T10:13:07;27.60;50.00
44723;DHT22;30451;48.638;10.624;2022-07-23T10:15:34;27.60;50.00
44723;DHT22;30451;48.638;10.624;2022-07-23T10:17:59;27.60;50.00
44723;DHT22;30451;48.638;10.624;2022-07-23T10:20:25;27.70;49.90
44723;DHT22;30451;48.638;10.624;2022-07-23T10:22:55;27.60;49.90
44723;DHT22;30451;48.638;10.624;2022-07-23T10:35:46;27.70;49.70
44723;DHT22;30451;48.638;10.624;2022-07-23T10:38:20;27.70;49.80
44723;DHT22;30451;48.638;10.624;2022-07-23T10:43:19;27.70;49.70
44723;DHT22;30451;48.638;10.624;2022-07-23T10:45:44;27.70;49.80
44723;DHT22;30451;48.638;10.624;2022-07-23T10:50:42;27.70;49.70
44723;DHT22;30451;48.638;10.624;2022-07-23T10:57:59;27.70;49.80
44723;DHT22;30451;48.638;10.624;2022-07-23T11:00:25;27.70;49.80
44723;DHT22;30451;48.638;10.624;2022-07-23T11:02:52;27.70;49.80
44723;DHT22;30451;48.638;10.624;2022-07-23T11:05:23;27.80;49.90
44723;DHT22;30451;48.638;10.624;2022-07-23T11:10:46;27.80;49.90
44723;DHT22;30451;48.638;10.624;2022-07-23T11:31:52;27.80;50.00
44723;DHT22;30451;48.638;10.624;2022-07-23T11:34:24;27.80;50.10
44723;DHT22;30451;48.638;10.624;2022-07-23T11:36:53;27.80;50.40
44723;DHT22;30451;48.638;10.624;2022-07-23T11:39:18;27.80;50.50
44723;DHT22;30451;48.638;10.624;2022-07-23T11:41:45;27.80;50.50
44723;DHT22;30451;48.638;10.624;2022-07-23T11:44:24;27.90;50.70
44723;DHT22;30451;48.638;10.624;2022-07-23T11:49:21;27.90;51.20
44723;DHT22;30451;48.638;10.624;2022-07-23T11:51:47;27.90;50.60
44723;DHT22;30451;48.638;10.624;2022-07-23T11:54:12;28.00;50.60
44723;DHT22;30451;48.638;10.624;2022-07-23T11:56:54;28.10;50.90
44723;DHT22;30451;48.638;10.624;2022-07-23T11:59:19;28.10;51.00
44723;DHT22;30451;48.638;10.624;2022-07-23T12:01:59;28.10;51.10
44723;DHT22;30451;48.638;10.624;2022-07-23T12:04:28;28.20;51.20
44723;DHT22;30451;48.638;10.624;2022-07-23T12:07:02;28.20;51.10
44723;DHT22;30451;48.638;10.624;2022-07-23T12:09:27;28.30;51.20
44723;DHT22;30451;48.638;10.624;2022-07-23T12:11:59;28.30;51.10
44723;DHT22;30451;48.638;10.624;2022-07-23T12:14:25;28.30;51.10
44723;DHT22;30451;48.638;10.624;2022-07-23T12:17:06;28.40;51.00
44723;DHT22;30451;48.638;10.624;2022-07-23T12:19:31;28.40;51.00
44723;DHT22;30451;48.638;10.624;2022-07-23T12:21:57;28.40;50.90
44723;DHT22;30451;48.638;10.624;2022-07-23T12:24:23;28.50;50.90
44723;DHT22;30451;48.638;10.624;2022-07-23T12:29:36;28.50;50.70
44723;DHT22;30451;48.638;10.624;2022-07-23T12:32:02;28.50;50.60
44723;DHT22;30451;48.638;10.624;2022-07-23T12:34:28;28.60;50.60
44723;DHT22;30451;48.638;10.624;2022-07-23T12:36:53;28.60;50.60
44723;DHT22;30451;48.638;10.624;2022-07-23T12:39:31;28.70;50.60
44723;DHT22;30451;48.638;10.624;2022-07-23T12:41:57;28.70;50.60
44723;DHT22;30451;48.638;10.624;2022-07-23T12:44:22;28.70;50.50
44723;DHT22;30451;48.638;10.624;2022-07-23T12:46:52;28.70;50.50
44723;DHT22;30451;48.638;10.624;2022-07-23T12:49:27;28.80;50.50
44723;DHT22;30451;48.638;10.624;2022-07-23T12:51:53;28.80;50.50
44723;DHT22;30451;48.638;10.624;2022-07-23T12:54:19;28.90;50.50
44723;DHT22;30451;48.638;10.624;2022-07-23T12:56:51;28.90;50.60
44723;DHT22;30451;48.638;10.624;2022-07-23T12:59:17;28.90;50.60
44723;DHT22;30451;48.638;10.624;2022-07-23T13:01:43;29.00;50.60
44723;DHT22;30451;48.638;10.624;2022-07-23T13:04:20;29.00;50.50
44723;DHT22;30451;48.638;10.624;2022-07-23T13:06:48;29.00;50.40
44723;DHT22;30451;48.638;10.624;2022-07-23T13:09:15;29.00;50.40
44723;DHT22;30451;48.638;10.624;2022-07-23T13:11:41;29.00;50.30
44723;DHT22;30451;48.638;10.624;2022-07-23T13:14:07;29.10;50.30
44723;DHT22;30451;48.638;10.624;2022-07-23T13:16:33;29.10;50.20
44723;DHT22;30451;48.638;10.624;2022-07-23T13:18:59;29.10;50.20
44723;DHT22;30451;48.638;10.624;2022-07-23T13:21:25;29.10;50.20
44723;DHT22;30451;48.638;10.624;2022-07-23T13:23:51;29.10;50.10
44723;DHT22;30451;48.638;10.624;2022-07-23T13:26:17;29.10;50.10
44723;DHT22;30451;48.638;10.624;2022-07-23T13:28:42;29.10;50.10
44723;DHT22;30451;48.638;10.624;2022-07-23T13:31:08;29.20;50.10
44723;DHT22;30451;48.638;10.624;2022-07-23T13:33:34;29.20;50.00
44723;DHT22;30451;48.638;10.624;2022-07-23T13:36:00;29.20;50.00
44723;DHT22;30451;48.638;10.624;2022-07-23T13:38:25;29.20;50.00
44723;DHT22;30451;48.638;10.624;2022-07-23T13:40:51;29.20;50.00
44723;DHT22;30451;48.638;10.624;2022-07-23T13:43:18;29.20;50.00
44723;DHT22;30451;48.638;10.624;2022-07-23T13:45:44;29.20;49.90
44723;DHT22;30451;48.638;10.624;2022-07-23T13:48:11;29.20;49.90
44723;DHT22;30451;48.638;10.624;2022-07-23T13:50:37;29.20;49.90
44723;DHT22;30451;48.638;10.624;2022-07-23T13:53:07;29.20;49.90
44723;DHT22;30451;48.638;10.624;2022-07-23T13:55:34;29.20;50.40
44723;DHT22;30451;48.638;10.624;2022-07-23T13:58:00;29.20;49.90
44723;DHT22;30451;48.638;10.624;2022-07-23T14:00:26;29.20;49.90
44723;DHT22;30451;48.638;10.624;2022-07-23T14:02:52;29.20;49.80
44723;DHT22;30451;48.638;10.624;2022-07-23T14:05:17;29.20;49.80
44723;DHT22;30451;48.638;10.624;2022-07-23T14:07:43;29.20;49.80
44723;DHT22;30451;48.638;10.624;2022-07-23T14:10:10;29.20;49.80
44723;DHT22;30451;48.638;10.624;2022-07-23T14:12:36;29.20;49.80
44723;DHT22;30451;48.638;10.624;2022-07-23T14:15:02;29.20;49.70
44723;DHT22;30451;48.638;10.624;2022-07-23T14:17:28;29.20;49.70
44723;DHT22;30451;48.638;10.624;2022-07-23T14:19:53;29.20;49.70
44723;DHT22;30451;48.638;10.624;2022-07-23T14:22:19;29.30;49.80
44723;DHT22;30451;48.638;10.624;2022-07-23T14:24:44;29.30;49.80
44723;DHT22;30451;48.638;10.624;2022-07-23T14:27:10;29.30;49.80
44723;DHT22;30451;48.638;10.624;2022-07-23T14:29:35;29.30;49.80
44723;DHT22;30451;48.638;10.624;2022-07-23T14:32:02;29.30;49.80
44723;DHT22;30451;48.638;10.624;2022-07-23T14:34:27;29.30;49.80
44723;DHT22;30451;48.638;10.624;2022-07-23T14:36:53;29.30;49.70
44723;DHT22;30451;48.638;10.624;2022-07-23T14:39:19;29.30;49.80
44723;DHT22;30451;48.638;10.624;2022-07-23T14:41:44;29.30;49.80
44723;DHT22;30451;48.638;10.624;2022-07-23T14:44:10;29.30;49.80
44723;DHT22;30451;48.638;10.624;2022-07-23T14:46:36;29.30;49.80
44723;DHT22;30451;48.638;10.624;2022-07-23T14:49:02;29.30;49.80
44723;DHT22;30451;48.638;10.624;2022-07-23T14:51:27;29.20;49.70
44723;DHT22;30451;48.638;10.624;2022-07-23T14:53:53;29.30;49.70
44723;DHT22;30451;48.638;10.624;2022-07-23T14:56:18;29.30;49.90
44723;DHT22;30451;48.638;10.624;2022-07-23T14:58:44;29.30;49.90
44723;DHT22;30451;48.638;10.624;2022-07-23T15:01:09;29.30;50.00
44723;DHT22;30451;48.638;10.624;2022-07-23T15:03:35;29.30;50.60
44723;DHT22;30451;48.638;10.624;2022-07-23T15:06:00;29.30;50.20
44723;DHT22;30451;48.638;10.624;2022-07-23T15:08:26;29.40;50.30
44723;DHT22;30451;48.638;10.624;2022-07-23T15:10:51;29.40;50.20
44723;DHT22;30451;48.638;10.624;2022-07-23T15:13:17;29.40;50.10
44723;DHT22;30451;48.638;10.624;2022-07-23T15:15:43;29.50;50.10
44723;DHT22;30451;48.638;10.624;2022-07-23T15:18:08;29.40;49.90
44723;DHT22;30451;48.638;10.624;2022-07-23T15:20:34;29.50;50.00
44723;DHT22;30451;48.638;10.624;2022-07-23T15:22:59;29.50;49.80
44723;DHT22;30451;48.638;10.624;2022-07-23T15:25:25;29.50;49.70
44723;DHT22;30451;48.638;10.624;2022-07-23T15:27:50;29.50;49.70
44723;DHT22;30451;48.638;10.624;2022-07-23T15:30:16;29.50;49.70
44723;DHT22;30451;48.638;10.624;2022-07-23T15:32:41;29.50;49.90
44723;DHT22;30451;48.638;10.624;2022-07-23T15:35:07;29.60;50.20
44723;DHT22;30451;48.638;10.624;2022-07-23T15:37:33;29.60;50.00
44723;DHT22;30451;48.638;10.624;2022-07-23T15:39:59;29.60;50.20
44723;DHT22;30451;48.638;10.624;2022-07-23T15:42:25;29.60;50.10
44723;DHT22;30451;48.638;10.624;2022-07-23T15:44:50;29.60;49.80
44723;DHT22;30451;48.638;10.624;2022-07-23T15:47:16;29.60;49.80
44723;DHT22;30451;48.638;10.624;2022-07-23T15:49:42;29.60;49.70
44723;DHT22;30451;48.638;10.624;2022-07-23T15:52:08;29.70;49.70
44723;DHT22;30451;48.638;10.624;2022-07-23T15:54:37;29.60;49.60
44723;DHT22;30451;48.638;10.624;2022-07-23T15:57:03;29.60;49.70
44723;DHT22;30451;48.638;10.624;2022-07-23T15:59:29;29.60;49.60
44723;DHT22;30451;48.638;10.624;2022-07-23T16:01:54;29.70;49.60